createdAt,value
2019-02-02T00:03:48.115Z,34.50
2019-02-02T00:07:51.577Z,35.53
2019-02-02T00:11:55.043Z,40.07
2019-02-02T00:15:58.492Z,36.73
2019-02-02T00:20:01.954Z,40.20
2019-02-02T00:24:05.417Z,40.10
2019-02-02T00:28:08.877Z,37.50
2019-02-02T00:32:12.341Z,39.33
2019-02-02T00:36:15.797Z,37.93
2019-02-02T00:40:19.262Z,34.83
2019-02-02T00:44:22.721Z,39.57
2019-02-02T00:48:26.203Z,34.63
2019-02-02T00:52:29.669Z,37.03
2019-02-02T00:56:33.121Z,35.40
2019-02-02T01:00:36.583Z,36.40
2019-02-02T01:04:40.053Z,32.03
2019-02-02T01:08:43.516Z,37.33
2019-02-02T01:12:46.984Z,35.70
2019-02-02T01:16:50.437Z,34.03
2019-02-02T01:20:53.900Z,36.80
2019-02-02T01:24:57.369Z,42.47
2019-02-02T01:29:00.828Z,38.27
2019-02-02T01:33:04.290Z,37.33
2019-02-02T01:37:07.743Z,41.50
2019-02-02T01:41:11.209Z,39.67
2019-02-02T01:45:14.674Z,35.93
2019-02-02T01:49:18.140Z,39.70
2019-02-02T01:53:21.621Z,34.40
2019-02-02T01:57:25.073Z,34.00
2019-02-02T02:01:28.536Z,33.87
2019-02-02T02:05:32.002Z,33.17
2019-02-02T02:09:35.467Z,39.53
2019-02-02T02:13:38.922Z,38.73
2019-02-02T02:17:42.393Z,34.77
2019-02-02T02:21:46.825Z,37.67
2019-02-02T02:25:50.285Z,26.60
2019-02-02T02:29:53.753Z,30.10
2019-02-02T02:33:57.211Z,31.17
2019-02-02T02:38:00.673Z,30.60
2019-02-02T02:42:04.138Z,34.30
2019-02-02T02:46:07.610Z,28.97
2019-02-02T02:50:11.079Z,30.27
2019-02-02T02:54:14.541Z,25.97
2019-02-02T02:58:17.995Z,26.40
2019-02-02T03:02:21.499Z,29.00
2019-02-02T03:06:24.929Z,29.37
2019-02-02T03:10:28.391Z,26.73
2019-02-02T03:14:31.854Z,27.20
2019-02-02T03:18:35.320Z,26.13
2019-02-02T03:22:38.782Z,30.20
2019-02-02T03:26:42.249Z,26.57
2019-02-02T03:30:45.722Z,32.63
2019-02-02T03:34:49.172Z,31.70
2019-02-02T03:38:52.641Z,27.10
2019-02-02T03:42:56.100Z,29.73
2019-02-02T03:46:59.572Z,30.00
2019-02-02T03:51:03.025Z,28.00
2019-02-02T03:55:06.486Z,27.00
2019-02-02T03:59:09.953Z,31.97
2019-02-02T04:03:13.418Z,23.43
2019-02-02T04:07:16.884Z,28.37
2019-02-02T04:11:20.331Z,26.77
2019-02-02T04:15:23.790Z,29.53
2019-02-02T04:19:27.253Z,28.23
2019-02-02T04:23:30.721Z,31.30
2019-02-02T04:27:34.184Z,31.43
2019-02-02T04:31:37.640Z,34.00
2019-02-02T04:35:41.106Z,28.77
2019-02-02T04:39:44.576Z,30.03
2019-02-02T04:43:48.036Z,30.60
2019-02-02T04:47:51.503Z,38.23
2019-02-02T04:51:54.958Z,33.27
2019-02-02T04:55:58.423Z,32.10
2019-02-02T05:00:01.893Z,30.97
2019-02-02T05:04:05.359Z,33.27
2019-02-02T05:08:08.824Z,31.57
2019-02-02T05:12:12.273Z,31.87
2019-02-02T05:16:15.743Z,31.83
2019-02-02T05:20:19.195Z,36.67
2019-02-02T05:24:22.661Z,33.90
2019-02-02T05:28:26.410Z,32.30
2019-02-02T05:32:29.861Z,40.07
2019-02-02T05:36:33.328Z,32.73
2019-02-02T05:40:36.798Z,34.80
2019-02-02T05:44:40.259Z,35.03
2019-02-02T05:48:43.715Z,32.90
2019-02-02T05:52:47.189Z,30.40
2019-02-02T05:56:50.637Z,33.90
2019-02-02T06:00:54.674Z,39.80
2019-02-02T06:04:58.140Z,33.60
2019-02-02T06:09:01.601Z,35.27
2019-02-02T06:13:06.148Z,37.50
2019-02-02T06:17:09.586Z,36.90
2019-02-02T06:21:13.057Z,38.83
2019-02-02T06:25:16.518Z,33.60
2019-02-02T06:29:19.975Z,38.83
2019-02-02T06:33:23.431Z,33.73
2019-02-02T06:37:26.905Z,34.17
2019-02-02T06:41:30.370Z,36.97
2019-02-02T06:45:33.941Z,37.10
2019-02-02T06:49:37.360Z,36.70
2019-02-02T06:53:40.824Z,32.67
2019-02-02T06:57:44.292Z,37.67
2019-02-02T07:01:47.755Z,33.03
2019-02-02T07:05:51.206Z,37.77
2019-02-02T07:09:54.676Z,39.43
2019-02-02T07:13:58.133Z,42.83
2019-02-02T07:18:01.598Z,37.03
2019-02-02T07:22:05.060Z,36.67
2019-02-02T07:26:08.520Z,40.00
2019-02-02T07:30:11.991Z,37.77
2019-02-02T07:34:16.525Z,38.10
2019-02-02T07:38:19.994Z,38.33
2019-02-02T07:42:23.482Z,40.83
2019-02-02T07:46:26.934Z,46.47
2019-02-02T07:50:31.382Z,42.40
2019-02-02T07:54:34.840Z,43.13
2019-02-02T07:58:38.293Z,41.73
2019-02-02T08:02:41.763Z,37.63
2019-02-02T08:06:46.286Z,39.97
2019-02-02T08:10:49.866Z,36.20
2019-02-02T08:14:53.336Z,41.80
2019-02-02T08:18:56.797Z,38.00
2019-02-02T08:23:00.264Z,36.90
2019-02-02T08:27:03.723Z,39.67
2019-02-02T08:31:07.189Z,41.20
2019-02-02T08:35:10.657Z,39.50
2019-02-02T08:39:14.114Z,43.13
2019-02-02T08:43:17.577Z,45.37
2019-02-02T08:47:21.031Z,40.57
2019-02-02T08:51:24.492Z,49.30
2019-02-02T08:55:27.957Z,39.43
2019-02-02T08:59:31.417Z,50.23
2019-02-02T09:03:34.937Z,53.00
2019-02-02T09:07:39.415Z,45.90
2019-02-02T09:11:42.880Z,44.57
2019-02-02T09:15:46.336Z,39.60
2019-02-02T09:19:49.800Z,47.03
2019-02-02T09:23:53.245Z,46.63
2019-02-02T09:27:56.721Z,47.53
2019-02-02T09:32:00.184Z,46.67
2019-02-02T09:36:03.649Z,48.63
2019-02-02T09:40:08.083Z,49.93
2019-02-02T09:44:11.538Z,46.77
2019-02-02T09:48:15.010Z,45.80
2019-02-02T09:52:18.472Z,64.03
2019-02-02T09:56:21.941Z,59.20
2019-02-02T10:00:25.409Z,69.00
2019-02-02T10:04:28.864Z,66.57
2019-02-02T10:08:32.328Z,53.33
2019-02-02T10:12:36.869Z,50.77
2019-02-02T10:16:40.335Z,60.53
2019-02-02T10:20:43.808Z,60.73
2019-02-02T10:24:47.263Z,54.63
2019-02-02T10:28:50.731Z,53.83
2019-02-02T10:32:54.195Z,48.67
2019-02-02T10:36:57.660Z,51.43
2019-02-02T10:41:01.126Z,46.73
2019-02-02T10:45:04.573Z,47.60
2019-02-02T10:49:08.039Z,40.70
2019-02-02T10:53:11.500Z,40.37
2019-02-02T10:57:14.971Z,30.53
2019-02-02T11:01:18.453Z,35.50
2019-02-02T11:05:22.025Z,36.27
2019-02-02T11:09:25.599Z,32.43
2019-02-02T11:13:29.058Z,34.30
2019-02-02T11:17:32.675Z,34.23
2019-02-02T11:21:36.076Z,31.27
2019-02-02T11:25:39.802Z,34.03
2019-02-02T11:29:43.330Z,30.30
2019-02-02T11:33:46.836Z,31.43
2019-02-02T11:37:50.302Z,34.40
2019-02-02T11:41:53.765Z,43.53
2019-02-02T11:45:57.223Z,30.87
2019-02-02T11:50:00.764Z,28.77
2019-02-02T11:54:04.224Z,27.10
2019-02-02T11:58:07.692Z,27.47
2019-02-02T12:02:14.515Z,26.13
2019-02-02T12:06:16.319Z,23.97
2019-02-02T12:10:19.781Z,22.30
2019-02-02T12:14:23.252Z,23.90
2019-02-02T12:18:26.717Z,18.13
2019-02-02T12:22:30.178Z,28.43
2019-02-02T12:26:33.647Z,26.47
2019-02-02T12:30:37.108Z,20.93
2019-02-02T12:34:40.579Z,23.10
2019-02-02T12:38:44.040Z,23.47
2019-02-02T12:42:47.489Z,22.33
2019-02-02T12:46:50.949Z,22.30
2019-02-02T12:50:54.408Z,23.87
2019-02-02T12:54:57.871Z,22.60
2019-02-02T12:59:01.342Z,21.53
2019-02-02T13:03:04.795Z,22.93
2019-02-02T13:07:08.252Z,20.37
2019-02-02T13:11:11.719Z,27.93
2019-02-02T13:15:15.186Z,30.10
2019-02-02T13:19:18.646Z,25.57
2019-02-02T13:23:22.106Z,27.50
2019-02-02T13:27:25.611Z,30.10
2019-02-02T13:31:29.026Z,27.93
2019-02-02T13:35:32.485Z,27.33
2019-02-02T13:39:35.960Z,27.53
2019-02-02T13:43:39.416Z,29.10
2019-02-02T13:47:42.892Z,31.73
2019-02-02T13:51:47.319Z,28.03
2019-02-02T13:55:50.790Z,32.20
2019-02-02T13:59:54.312Z,26.37
2019-02-02T14:03:57.771Z,29.80
2019-02-02T14:08:01.241Z,27.73
2019-02-02T14:12:04.703Z,24.10
2019-02-02T14:16:08.172Z,22.40
2019-02-02T14:20:11.626Z,32.20
2019-02-02T14:24:15.102Z,22.17
2019-02-02T14:28:27.988Z,23.47
2019-02-02T14:32:23.745Z,28.37
2019-02-02T14:36:27.212Z,20.73
2019-02-02T14:40:30.674Z,23.30
2019-02-02T14:44:34.149Z,23.20
2019-02-02T14:48:37.603Z,25.03
2019-02-02T14:52:41.070Z,20.83
2019-02-02T14:56:48.017Z,17.70
2019-02-02T15:00:49.688Z,19.80
2019-02-02T15:04:53.157Z,18.67
2019-02-02T15:08:56.618Z,20.23
2019-02-02T15:13:00.091Z,19.97
2019-02-02T15:17:03.540Z,18.00
2019-02-02T15:21:07.600Z,17.37
2019-02-02T15:25:11.035Z,17.57
2019-02-02T15:29:14.496Z,18.83
2019-02-02T15:33:17.963Z,16.80
2019-02-02T15:37:21.420Z,15.07
2019-02-02T15:41:24.870Z,16.17
2019-02-02T15:45:28.340Z,17.10
2019-02-02T15:49:31.803Z,13.03
2019-02-02T15:53:35.265Z,19.10
2019-02-02T15:57:38.725Z,18.40
2019-02-02T16:01:42.177Z,19.17
2019-02-02T16:05:45.637Z,17.73
2019-02-02T16:09:49.091Z,16.90
2019-02-02T16:13:52.555Z,17.43
2019-02-02T16:17:56.011Z,17.03
2019-02-02T16:21:59.461Z,17.60
2019-02-02T16:26:02.928Z,18.73
2019-02-02T16:30:06.404Z,19.77
2019-02-02T16:34:09.874Z,24.30
2019-02-02T16:38:14.404Z,28.47
2019-02-02T16:42:18.934Z,32.83
2019-02-02T16:46:22.395Z,32.37
2019-02-02T16:50:25.860Z,28.70
2019-02-02T16:54:29.331Z,28.57
2019-02-02T16:58:32.796Z,46.43
2019-02-02T17:02:36.247Z,46.20
2019-02-02T17:06:39.718Z,40.37
2019-02-02T17:10:43.182Z,41.07
2019-02-02T17:14:46.651Z,42.27
2019-02-02T17:18:50.104Z,36.00
2019-02-02T17:22:53.574Z,29.70
2019-02-02T17:26:57.035Z,30.70
2019-02-02T17:31:00.497Z,37.87
2019-02-02T17:35:04.942Z,29.13
2019-02-02T17:39:08.389Z,26.50
2019-02-02T17:43:12.024Z,34.87
2019-02-02T17:47:15.493Z,29.73
2019-02-02T17:51:19.059Z,21.97
2019-02-02T17:55:22.501Z,18.13
2019-02-02T17:59:26.085Z,20.27
2019-02-02T18:03:30.617Z,22.37
2019-02-02T18:07:34.084Z,23.10
2019-02-02T18:11:37.551Z,24.30
2019-02-02T18:15:41.019Z,25.93
2019-02-02T18:19:44.471Z,26.47
2019-02-02T18:23:47.938Z,25.60
2019-02-02T18:27:51.410Z,27.23
2019-02-02T18:31:54.889Z,35.73
2019-02-02T18:35:58.382Z,33.07
2019-02-02T18:40:01.837Z,41.17
2019-02-02T18:44:05.320Z,42.13
2019-02-02T18:48:08.798Z,41.10
2019-02-02T18:52:12.264Z,42.50
2019-02-02T18:56:15.731Z,55.67
2019-02-02T19:00:19.186Z,61.33
2019-02-02T19:04:22.648Z,65.47
2019-02-02T19:08:26.115Z,69.50
2019-02-02T19:12:29.600Z,60.33
2019-02-02T19:16:33.077Z,68.10
2019-02-02T19:20:36.519Z,68.53
2019-02-02T19:24:39.987Z,81.20
2019-02-02T19:28:43.457Z,78.87
2019-02-02T19:32:46.950Z,83.43
2019-02-02T19:36:50.412Z,76.20
2019-02-02T19:40:53.876Z,73.13
2019-02-02T19:44:57.345Z,69.67
2019-02-02T19:49:00.816Z,72.53
2019-02-02T19:53:04.329Z,67.33
2019-02-02T19:57:07.841Z,74.50
2019-02-02T20:01:11.296Z,73.83
2019-02-02T20:05:14.768Z,67.13
2019-02-02T20:09:18.256Z,68.40
2019-02-02T20:13:21.726Z,69.47
2019-02-02T20:17:25.190Z,70.43
2019-02-02T20:21:28.713Z,67.17
2019-02-02T20:25:32.182Z,70.53
2019-02-02T20:29:35.649Z,76.50
2019-02-02T20:33:39.121Z,68.87
2019-02-02T20:37:42.586Z,61.97
2019-02-02T20:41:46.041Z,74.90
2019-02-02T20:45:50.317Z,73.83
2019-02-02T20:49:53.816Z,65.50
2019-02-02T20:53:57.260Z,62.97
2019-02-02T20:58:00.738Z,84.43
2019-02-02T21:02:04.190Z,79.37
2019-02-02T21:06:07.676Z,70.73
2019-02-02T21:10:11.129Z,74.57
2019-02-02T21:14:14.773Z,67.33
2019-02-02T21:18:18.231Z,53.63
2019-02-02T21:22:21.696Z,53.47
2019-02-02T21:26:25.157Z,63.90
2019-02-02T21:30:28.643Z,55.83
2019-02-02T21:34:32.091Z,52.67
2019-02-02T21:38:35.554Z,50.60
2019-02-02T21:42:39.400Z,53.37
2019-02-02T21:46:42.869Z,62.43
2019-02-02T21:50:46.333Z,52.53
2019-02-02T21:54:49.797Z,55.93
2019-02-02T21:58:53.257Z,49.33
2019-02-02T22:02:56.720Z,48.30
2019-02-02T22:07:00.192Z,48.97
2019-02-02T22:11:03.942Z,40.30
2019-02-02T22:15:07.410Z,53.17
2019-02-02T22:19:10.871Z,44.80
2019-02-02T22:23:14.361Z,42.97
2019-02-02T22:27:17.825Z,45.20
2019-02-02T22:31:21.289Z,40.60
2019-02-02T22:35:24.759Z,39.67
2019-02-02T22:39:28.211Z,39.90
2019-02-02T22:43:31.684Z,38.27
2019-02-02T22:47:35.139Z,37.17
2019-02-02T22:51:38.611Z,39.90
2019-02-02T22:55:42.091Z,37.27
2019-02-02T22:59:47.797Z,34.20
2019-02-02T23:03:50.698Z,32.43
2019-02-02T23:07:54.160Z,27.70
2019-02-02T23:11:57.625Z,28.53
2019-02-02T23:16:01.093Z,25.87
2019-02-02T23:20:04.545Z,24.30
2019-02-02T23:24:08.019Z,23.77
2019-02-02T23:28:11.489Z,22.57
2019-02-02T23:32:14.961Z,106.63
2019-02-02T23:36:18.429Z,22.93
2019-02-02T23:40:21.877Z,20.83
2019-02-02T23:44:25.382Z,20.37
2019-02-02T23:48:28.823Z,23.40
2019-02-02T23:52:32.291Z,20.20
2019-02-02T23:56:35.754Z,21.93
